Aeroporto :
LOGIN :

Iscrizione | Disclaimer

   EN    FR    IT 

 










Sommario :    VFR   VFR Marginale   IFR   IFR Intensivo   IFR Molto Intensivo
Visibilità : 
Base nubi : 
>= 8 km
>= 3000ft
5 / 8 km
1000 / 3000 ft
1500m / 5 km
500 / 1000 ft
800 / 1500m
200 / 500 ft
< 800m
< 200 ft
Simboli :   Temporali  Nebbia  Neve Forte  Precipitazioni Forti  Vento > 20 kt
SIGMETs :   Varie  Temporali  Ghiacco  Turbolenza  Onda orograficha  Ceneri Vulcaniche






- Altitudine del aeroporto : 686 ft
- Codice IATA : URS


UUOK - Vostochny

ULTIMO METAR :
  • 280600Z 08003MPS CAVOK 13/09 Q1023 R12/////// NOSIG RMK QFE749/0999

METARs OBSOLETI :
  • 280530Z 09005MPS CAVOK 13/09 Q1022 R12/////// NOSIG RMK QFE749/0998
  • 280500Z 10003MPS CAVOK 13/10 Q1023 R12/////// NOSIG RMK QFE749/0999
  • 280430Z 01002MPS CAVOK 11/09 Q1022 R12/////// NOSIG RMK QFE749/0998
  • 280400Z 35003MPS CAVOK 09/09 Q1022 R12/////// NOSIG RMK QFE749/0999
  • 280330Z 33002MPS 300V030 CAVOK 08/08 Q1023 R12/////// NOSIG RMK QFE749/0999

TAF TAF UUOK
Valido dal 28 a 06 ore il 28 a 15 ore UTC


280505Z 2806/2815 07005MPS 9999 -SHRA BKN030CB
TEMPO 2806/2812 07007G12MPS 3100 -TSRA SCT007 BKN015CB



MetMap, La meteo Aeronautica in un colpo d'occhio ! - Copyright ORBIFLY Dicembre 2007 - Disclaimer

ORBIFLY MET'MAP TEAM :

Programmazione e sviluppo : Alexandra Zaïnal
Concezione : Baudouin d'Aumeries
Aiuto per la programmazione : Marc-Olivier Méhu
Supporto tecnico e logistico : Manuel Goepfert
Aiuto per la traduzione : Arnaldo La Scala

Contatto : metmap@orbifly.com




FONTI E CREDITI :

   NOAA